Time;durP1;ratioP1;P1;durP2;ratioP2;P2;SDS_P1;SDS_P2;PMS_P1;PMS_P2;Temp;Humidity;BMP_temperature;BMP_pressure;BME280_temperature;BME280_humidity;BME280_pressure;Samples;Min_cycle;Max_cycle;Signal;HPM_P1;HPM_P2
2021/10/30 00:01:56;;;;;;;7.82;2.22;;;;;;;;;;5069641;28;20098;-61
2021/10/30 00:04:23;;;;;;;5.95;2.40;;;;;;;;;;5082662;28;20429;-61
2021/10/30 00:06:51;;;;;;;4.60;2.03;;;;;;;;;;5070132;28;20050;-61
2021/10/30 00:09:18;;;;;;;5.60;2.80;;;;;;;;;;5039985;28;20045;-61
2021/10/30 00:11:44;;;;;;;7.03;2.25;;;;;;;;;;5038014;28;20082;-61
2021/10/30 00:14:11;;;;;;;6.53;2.63;;;;;;;;;;5034885;28;20168;-61
2021/10/30 00:16:38;;;;;;;4.50;2.40;;;;;;;;;;5045686;28;20048;-62
2021/10/30 00:19:04;;;;;;;5.50;2.47;;;;;;;;;;5064168;28;20048;-60
2021/10/30 00:21:31;;;;;;;5.20;2.30;;;;;;;;;;5048191;28;20072;-61
2021/10/30 00:24:00;;;;;;;5.40;2.53;;;;;;;;;;5045708;28;20044;-61
2021/10/30 00:26:26;;;;;;;8.13;3.08;;;;;;;;;;5063056;28;20153;-61
2021/10/30 00:28:53;;;;;;;4.97;2.33;;;;;;;;;;5042497;28;20147;-61
2021/10/30 00:31:19;;;;;;;7.85;2.70;;;;;;;;;;5044675;28;20084;-61
2021/10/30 00:33:46;;;;;;;6.32;2.85;;;;;;;;;;5038665;28;20057;-61
2021/10/30 00:36:13;;;;;;;7.60;2.67;;;;;;;;;;5043547;28;20033;-60
2021/10/30 00:38:39;;;;;;;6.80;2.88;;;;;;;;;;5038778;28;20055;-61
2021/10/30 00:41:09;;;;;;;6.75;2.90;;;;;;;;;;5041088;28;20041;-60
2021/10/30 00:43:36;;;;;;;5.82;2.40;;;;;;;;;;5049508;28;20040;-61
2021/10/30 00:46:03;;;;;;;4.60;2.42;;;;;;;;;;5061719;28;20085;-60
2021/10/30 00:48:29;;;;;;;9.15;3.28;;;;;;;;;;5049570;28;20080;-60
2021/10/30 00:50:56;;;;;;;7.57;2.92;;;;;;;;;;5042291;28;20053;-61
2021/10/30 00:53:28;;;;;;;6.30;2.60;;;;;;;;;;5042913;28;20058;-61
2021/10/30 00:55:55;;;;;;;7.40;3.00;;;;;;;;;;5064365;28;20040;-61
2021/10/30 00:58:23;;;;;;;7.85;3.28;;;;;;;;;;5052642;28;20039;-61
2021/10/30 01:00:50;;;;;;;6.33;2.90;;;;;;;;;;5042190;28;20073;-60
2021/10/30 01:03:17;;;;;;;5.68;2.70;;;;;;;;;;5041118;28;20282;-61
2021/10/30 01:05:43;;;;;;;8.07;3.65;;;;;;;;;;5062169;28;20482;-61
2021/10/30 01:08:13;;;;;;;10.73;5.55;;;;;;;;;;5062153;28;20056;-61
2021/10/30 01:10:39;;;;;;;12.73;6.15;;;;;;;;;;5053425;28;20041;-60
2021/10/30 01:13:06;;;;;;;12.38;6.07;;;;;;;;;;5061685;28;20072;-61
2021/10/30 01:15:40;;;;;;;9.02;4.47;;;;;;;;;;5041793;28;20049;-61
2021/10/30 01:18:06;;;;;;;7.63;3.65;;;;;;;;;;5043045;28;20037;-61
2021/10/30 01:20:34;;;;;;;8.85;3.90;;;;;;;;;;5038479;28;20045;-60
2021/10/30 01:23:02;;;;;;;6.93;3.67;;;;;;;;;;5049485;28;20045;-61
2021/10/30 01:25:30;;;;;;;6.85;3.25;;;;;;;;;;5059811;28;20029;-61
2021/10/30 01:27:57;;;;;;;9.60;3.80;;;;;;;;;;5062841;28;20052;-60
2021/10/30 01:30:24;;;;;;;8.27;3.72;;;;;;;;;;5058801;28;20029;-61
2021/10/30 01:32:55;;;;;;;7.28;3.13;;;;;;;;;;5061927;28;20037;-60
2021/10/30 01:35:27;;;;;;;6.00;2.90;;;;;;;;;;5075466;28;20036;-60
2021/10/30 01:37:55;;;;;;;6.53;2.90;;;;;;;;;;5055224;28;20055;-61
2021/10/30 01:40:22;;;;;;;7.63;3.30;;;;;;;;;;5057629;28;20254;-61
2021/10/30 01:42:57;;;;;;;6.43;3.08;;;;;;;;;;5062138;28;20284;-61
2021/10/30 01:45:26;;;;;;;6.38;3.03;;;;;;;;;;5051337;28;20085;-61
2021/10/30 01:47:53;;;;;;;7.25;2.85;;;;;;;;;;5042997;28;20292;-61
2021/10/30 01:50:20;;;;;;;6.75;3.13;;;;;;;;;;5057627;28;20041;-60
2021/10/30 01:52:46;;;;;;;7.03;3.13;;;;;;;;;;5062161;28;20047;-60
2021/10/30 01:55:16;;;;;;;8.20;3.08;;;;;;;;;;5057938;28;20300;-60
2021/10/30 01:57:43;;;;;;;9.48;3.40;;;;;;;;;;5060091;28;20048;-60
2021/10/30 02:00:10;;;;;;;7.55;3.53;;;;;;;;;;5062212;28;20044;-60
2021/10/30 02:02:37;;;;;;;7.32;3.03;;;;;;;;;;5055849;28;20129;-61
2021/10/30 02:05:06;;;;;;;8.15;3.47;;;;;;;;;;5079780;28;20044;-61
2021/10/30 02:07:33;;;;;;;8.90;3.47;;;;;;;;;;5060590;28;20045;-60
2021/10/30 02:09:59;;;;;;;6.43;3.35;;;;;;;;;;5040461;28;20056;-61
2021/10/30 02:12:27;;;;;;;5.97;3.05;;;;;;;;;;5057086;28;20047;-61
2021/10/30 02:14:54;;;;;;;10.35;3.83;;;;;;;;;;5061561;28;20040;-61
2021/10/30 02:17:20;;;;;;;7.18;3.35;;;;;;;;;;5060697;28;20044;-61
2021/10/30 02:19:47;;;;;;;7.35;3.33;;;;;;;;;;5041041;28;20118;-61
2021/10/30 02:22:13;;;;;;;8.88;3.85;;;;;;;;;;5034294;28;20060;-61
2021/10/30 02:24:41;;;;;;;10.27;3.55;;;;;;;;;;5042899;28;20056;-59
2021/10/30 02:27:07;;;;;;;10.30;4.22;;;;;;;;;;5046166;28;20040;-60
2021/10/30 02:29:35;;;;;;;8.13;3.67;;;;;;;;;;5062341;28;20037;-60
2021/10/30 02:32:02;;;;;;;7.70;4.20;;;;;;;;;;5059118;28;20466;-60
2021/10/30 02:34:29;;;;;;;7.82;3.58;;;;;;;;;;5062257;28;20048;-61
2021/10/30 02:36:56;;;;;;;10.05;3.40;;;;;;;;;;5058064;28;20069;-61
2021/10/30 02:39:22;;;;;;;8.98;3.65;;;;;;;;;;5043676;28;20041;-61
2021/10/30 02:41:49;;;;;;;10.75;4.05;;;;;;;;;;5044238;28;20099;-60
2021/10/30 02:44:16;;;;;;;8.52;4.18;;;;;;;;;;5042944;28;20032;-60
2021/10/30 02:46:44;;;;;;;7.45;3.55;;;;;;;;;;5043778;28;20206;-60
2021/10/30 02:49:10;;;;;;;10.70;4.70;;;;;;;;;;5043278;28;20049;-60
2021/10/30 02:51:37;;;;;;;10.90;4.13;;;;;;;;;;5043764;28;20034;-60
2021/10/30 02:54:04;;;;;;;8.95;4.00;;;;;;;;;;5056470;28;20040;-60
2021/10/30 02:56:30;;;;;;;9.48;4.30;;;;;;;;;;5065395;28;20033;-61
2021/10/30 02:58:57;;;;;;;11.55;4.38;;;;;;;;;;5046885;28;20064;-61
2021/10/30 03:01:24;;;;;;;8.52;4.18;;;;;;;;;;5043774;28;20043;-61
2021/10/30 03:03:52;;;;;;;7.32;3.35;;;;;;;;;;5049965;28;20081;-61
2021/10/30 03:06:21;;;;;;;9.30;4.30;;;;;;;;;;5063289;28;20040;-60
2021/10/30 03:08:48;;;;;;;8.35;4.40;;;;;;;;;;5056135;28;20052;-61
2021/10/30 03:11:14;;;;;;;8.95;4.13;;;;;;;;;;5044697;28;20169;-61
2021/10/30 03:13:42;;;;;;;10.85;4.35;;;;;;;;;;5057100;28;20126;-61
2021/10/30 03:16:08;;;;;;;7.10;3.90;;;;;;;;;;5043372;28;20519;-61
2021/10/30 03:18:35;;;;;;;9.65;4.00;;;;;;;;;;5042956;28;20057;-61
2021/10/30 03:21:03;;;;;;;9.70;3.78;;;;;;;;;;5047532;28;20037;-61
2021/10/30 03:23:30;;;;;;;9.57;4.10;;;;;;;;;;5041579;28;20167;-62
2021/10/30 03:25:56;;;;;;;7.95;4.05;;;;;;;;;;5061956;28;20588;-60
2021/10/30 03:28:23;;;;;;;7.57;3.70;;;;;;;;;;5062460;28;20051;-60
2021/10/30 03:30:49;;;;;;;9.35;3.70;;;;;;;;;;5061170;28;20122;-61
2021/10/30 03:33:16;;;;;;;9.55;4.05;;;;;;;;;;5059967;28;20053;-60
2021/10/30 03:35:42;;;;;;;9.05;4.13;;;;;;;;;;5043891;28;20045;-61
2021/10/30 03:38:10;;;;;;;13.48;3.40;;;;;;;;;;5043522;28;20048;-61
2021/10/30 03:40:36;;;;;;;7.73;3.73;;;;;;;;;;5038887;28;20518;-60
2021/10/30 03:43:03;;;;;;;8.65;4.22;;;;;;;;;;5044261;28;20289;-60
2021/10/30 03:45:30;;;;;;;8.85;4.22;;;;;;;;;;5050016;28;20098;-61
2021/10/30 03:47:56;;;;;;;7.45;3.50;;;;;;;;;;5062846;28;20033;-60
2021/10/30 03:50:23;;;;;;;7.53;3.35;;;;;;;;;;5060468;28;20040;-61
2021/10/30 03:52:49;;;;;;;7.90;3.45;;;;;;;;;;5062804;28;20052;-60
2021/10/30 03:55:17;;;;;;;7.88;3.20;;;;;;;;;;5058186;28;20048;-60
2021/10/30 03:57:44;;;;;;;7.25;3.13;;;;;;;;;;5062597;28;20045;-60
2021/10/30 04:00:11;;;;;;;10.10;3.22;;;;;;;;;;5058189;28;20029;-60
2021/10/30 04:02:37;;;;;;;9.40;3.50;;;;;;;;;;5064219;28;20086;-61
2021/10/30 04:05:05;;;;;;;10.90;2.90;;;;;;;;;;5062961;28;20056;-60
2021/10/30 04:07:32;;;;;;;6.22;3.05;;;;;;;;;;5042530;28;20146;-60
2021/10/30 04:09:58;;;;;;;7.57;3.17;;;;;;;;;;5043839;28;20439;-60
2021/10/30 04:12:26;;;;;;;8.82;3.45;;;;;;;;;;5039056;28;20049;-61
2021/10/30 04:14:54;;;;;;;7.77;2.97;;;;;;;;;;5044565;28;20029;-60
2021/10/30 04:17:20;;;;;;;7.80;3.47;;;;;;;;;;5056223;28;20052;-60
2021/10/30 04:19:47;;;;;;;6.60;3.13;;;;;;;;;;5065973;28;20110;-60
2021/10/30 04:22:13;;;;;;;7.65;3.28;;;;;;;;;;5053014;28;20118;-60
2021/10/30 04:24:40;;;;;;;8.05;3.42;;;;;;;;;;5062591;28;20047;-60
2021/10/30 04:27:07;;;;;;;7.30;3.47;;;;;;;;;;5049866;28;20041;-60
2021/10/30 04:29:35;;;;;;;7.57;3.42;;;;;;;;;;5043265;28;20037;-60
2021/10/30 04:32:03;;;;;;;7.53;3.27;;;;;;;;;;5041585;28;20113;-60
2021/10/30 04:34:41;;;;;;;8.25;3.17;;;;;;;;;;5041559;28;20300;-60
2021/10/30 04:37:13;;;;;;;;;;;;;;;;;;5045442;28;20064;-61
2021/10/30 04:39:40;;;;;;;6.85;3.13;;;;;;;;;;5061892;28;20001;-60
2021/10/30 04:42:07;;;;;;;6.60;3.08;;;;;;;;;;5056036;28;20048;-60
2021/10/30 04:44:36;;;;;;;8.45;3.58;;;;;;;;;;5044270;28;20033;-61
2021/10/30 04:47:03;;;;;;;10.30;3.95;;;;;;;;;;5040790;28;20118;-60
2021/10/30 04:49:30;;;;;;;9.20;3.88;;;;;;;;;;5044433;28;20052;-60
2021/10/30 04:51:56;;;;;;;8.38;4.30;;;;;;;;;;5042712;28;20138;-60
2021/10/30 04:54:32;;;;;;;10.88;4.35;;;;;;;;;;5042543;28;20073;-61
2021/10/30 04:56:59;;;;;;;9.68;4.28;;;;;;;;;;5041983;28;20037;-60
2021/10/30 04:59:26;;;;;;;13.93;4.40;;;;;;;;;;5056554;28;20040;-60
2021/10/30 05:01:54;;;;;;;9.98;4.47;;;;;;;;;;5061578;28;20044;-60
2021/10/30 05:04:21;;;;;;;12.38;4.15;;;;;;;;;;5041189;28;20041;-61
2021/10/30 05:06:47;;;;;;;13.30;5.20;;;;;;;;;;5035776;28;20130;-61
2021/10/30 05:09:14;;;;;;;12.60;5.28;;;;;;;;;;5058977;28;20037;-61
2021/10/30 05:11:40;;;;;;;12.32;5.43;;;;;;;;;;5054332;28;20048;-60
2021/10/30 05:14:07;;;;;;;13.23;4.57;;;;;;;;;;5050928;28;20068;-60
2021/10/30 05:16:36;;;;;;;8.27;4.38;;;;;;;;;;5061667;28;20098;-60
2021/10/30 05:19:04;;;;;;;10.40;4.60;;;;;;;;;;5049288;28;20053;-61
2021/10/30 05:21:30;;;;;;;14.33;5.10;;;;;;;;;;5041624;28;20048;-60
2021/10/30 05:23:58;;;;;;;14.93;4.53;;;;;;;;;;5043818;28;20056;-60
2021/10/30 05:26:25;;;;;;;9.32;4.30;;;;;;;;;;5062130;28;20048;-61
2021/10/30 05:28:51;;;;;;;10.75;4.18;;;;;;;;;;5054764;28;20033;-61
2021/10/30 05:31:18;;;;;;;10.80;4.85;;;;;;;;;;5035823;28;20085;-60
2021/10/30 05:33:46;;;;;;;12.25;4.40;;;;;;;;;;5045482;28;20052;-61
2021/10/30 05:36:14;;;;;;;16.52;4.40;;;;;;;;;;5040787;28;20052;-61
2021/10/30 05:38:44;;;;;;;8.57;4.25;;;;;;;;;;5042087;28;20499;-60
2021/10/30 05:41:11;;;;;;;11.40;4.95;;;;;;;;;;5038936;28;20037;-61
2021/10/30 05:43:40;;;;;;;9.32;3.50;;;;;;;;;;5042384;28;20052;-61
2021/10/30 05:46:06;;;;;;;;;;;;;;;;;;5038830;28;20398;-60
2021/10/30 05:48:33;;;;;;;9.68;3.20;;;;;;;;;;5041453;28;19925;-61
2021/10/30 05:51:00;;;;;;;10.95;4.20;;;;;;;;;;5042747;28;20049;-60
2021/10/30 05:53:28;;;;;;;12.23;3.65;;;;;;;;;;5043949;28;20110;-61
2021/10/30 05:55:55;;;;;;;;;;;;;;;;;;5041319;28;20069;-61
2021/10/30 05:58:21;;;;;;;10.32;3.97;;;;;;;;;;5042671;28;19917;-60
2021/10/30 06:00:47;;;;;;;15.32;3.67;;;;;;;;;;5042682;28;20049;-61
2021/10/30 06:03:14;;;;;;;9.88;3.88;;;;;;;;;;5044515;28;20047;-60
2021/10/30 06:05:40;;;;;;;10.85;3.72;;;;;;;;;;5041553;28;20325;-61
2021/10/30 06:08:07;;;;;;;8.85;4.40;;;;;;;;;;5045120;28;20041;-60
2021/10/30 06:10:35;;;;;;;8.00;3.70;;;;;;;;;;5048679;28;20037;-60
2021/10/30 06:13:01;;;;;;;13.35;4.28;;;;;;;;;;5045777;28;20069;-60
2021/10/30 06:15:28;;;;;;;12.32;4.10;;;;;;;;;;5052734;28;21210;-60
2021/10/30 06:17:55;;;;;;;9.57;3.60;;;;;;;;;;5044013;28;20048;-60
2021/10/30 06:20:24;;;;;;;13.80;3.97;;;;;;;;;;5043524;28;20039;-60
2021/10/30 06:22:51;;;;;;;10.07;4.13;;;;;;;;;;5064858;28;20098;-59
2021/10/30 06:25:17;;;;;;;9.98;4.13;;;;;;;;;;5063647;28;20142;-60
2021/10/30 06:27:45;;;;;;;9.38;3.95;;;;;;;;;;5062964;28;20049;-60
2021/10/30 06:30:12;;;;;;;9.85;4.25;;;;;;;;;;5063788;28;20121;-59
2021/10/30 06:32:39;;;;;;;12.18;4.38;;;;;;;;;;5045282;28;20126;-60
2021/10/30 06:35:08;;;;;;;9.10;4.07;;;;;;;;;;5044088;28;20123;-59
2021/10/30 06:37:38;;;;;;;10.55;4.28;;;;;;;;;;5042638;28;20042;-60
2021/10/30 06:40:05;;;;;;;11.13;3.80;;;;;;;;;;5043784;28;20045;-60
2021/10/30 06:42:31;;;;;;;9.48;4.20;;;;;;;;;;5049999;28;20037;-60
2021/10/30 06:44:59;;;;;;;10.60;4.05;;;;;;;;;;5063001;28;20095;-59
2021/10/30 06:47:26;;;;;;;10.10;3.85;;;;;;;;;;5059817;28;20021;-59
2021/10/30 06:49:53;;;;;;;11.10;4.07;;;;;;;;;;5063585;28;20122;-59
2021/10/30 06:52:20;;;;;;;10.70;4.20;;;;;;;;;;5060269;28;20033;-59
2021/10/30 06:54:47;;;;;;;8.70;4.13;;;;;;;;;;5063829;28;20110;-60
2021/10/30 06:57:13;;;;;;;11.23;4.63;;;;;;;;;;5057014;28;20097;-59
2021/10/30 06:59:40;;;;;;;14.55;4.55;;;;;;;;;;5043793;28;20081;-59
2021/10/30 07:02:08;;;;;;;13.13;4.55;;;;;;;;;;5040426;28;20041;-59
2021/10/30 07:04:35;;;;;;;9.80;3.88;;;;;;;;;;5044065;28;20033;-59
2021/10/30 07:07:02;;;;;;;12.43;3.55;;;;;;;;;;5043413;28;20092;-59
2021/10/30 07:09:28;;;;;;;10.23;4.53;;;;;;;;;;5057114;28;20043;-59
2021/10/30 07:11:55;;;;;;;10.40;4.72;;;;;;;;;;5054244;28;20131;-58
2021/10/30 07:14:22;;;;;;;10.57;4.78;;;;;;;;;;5054220;28;20041;-59
2021/10/30 07:16:48;;;;;;;12.05;4.47;;;;;;;;;;5062797;28;20057;-60
2021/10/30 07:19:16;;;;;;;10.65;3.95;;;;;;;;;;5055988;28;20060;-59
2021/10/30 07:21:43;;;;;;;15.80;5.00;;;;;;;;;;5061620;28;20065;-59
2021/10/30 07:24:10;;;;;;;9.45;4.18;;;;;;;;;;5060037;28;20049;-59
2021/10/30 07:26:36;;;;;;;10.95;4.47;;;;;;;;;;5063270;28;20045;-59
2021/10/30 07:29:03;;;;;;;12.27;4.88;;;;;;;;;;5054361;28;20052;-59
2021/10/30 07:31:29;;;;;;;10.60;5.05;;;;;;;;;;5054636;28;20052;-59
2021/10/30 07:33:56;;;;;;;11.63;4.18;;;;;;;;;;5055966;28;20037;-60
2021/10/30 07:36:24;;;;;;;10.05;4.03;;;;;;;;;;5053336;28;20118;-60
2021/10/30 07:38:51;;;;;;;12.00;4.93;;;;;;;;;;5046057;28;20044;-59
2021/10/30 07:41:18;;;;;;;10.02;3.63;;;;;;;;;;5053853;28;20187;-59
2021/10/30 07:43:45;;;;;;;11.25;4.13;;;;;;;;;;5052202;28;20056;-59
2021/10/30 07:46:12;;;;;;;13.15;4.78;;;;;;;;;;5043592;28;20033;-59
2021/10/30 07:48:41;;;;;;;13.90;4.68;;;;;;;;;;5063077;28;20041;-58
2021/10/30 07:51:07;;;;;;;9.10;3.88;;;;;;;;;;5058944;28;20138;-58
2021/10/30 07:53:37;;;;;;;9.80;4.13;;;;;;;;;;5062701;28;20048;-58
2021/10/30 07:56:03;;;;;;;11.48;4.15;;;;;;;;;;5057740;28;20396;-58
2021/10/30 07:58:30;;;;;;;10.32;3.85;;;;;;;;;;5046007;28;20114;-60
2021/10/30 08:00:56;;;;;;;10.45;4.45;;;;;;;;;;5053338;28;20045;-58
2021/10/30 08:03:25;;;;;;;9.52;3.53;;;;;;;;;;5044013;28;20037;-58
2021/10/30 08:05:51;;;;;;;;;;;;;;;;;;5040109;28;20475;-57
2021/10/30 08:08:18;;;;;;;9.30;3.70;;;;;;;;;;5041480;28;19924;-58
2021/10/30 08:10:45;;;;;;;11.18;4.70;;;;;;;;;;5040740;28;20089;-58
2021/10/30 08:13:12;;;;;;;9.57;4.63;;;;;;;;;;5041393;28;20049;-58
2021/10/30 08:15:38;;;;;;;8.20;3.70;;;;;;;;;;5046382;28;20056;-58
2021/10/30 08:18:05;;;;;;;11.40;3.83;;;;;;;;;;5059761;28;20048;-58
2021/10/30 08:20:31;;;;;;;9.18;3.95;;;;;;;;;;5058641;28;20048;-57
2021/10/30 08:22:58;;;;;;;10.70;3.90;;;;;;;;;;5055795;28;20056;-58
2021/10/30 08:25:25;;;;;;;12.75;3.45;;;;;;;;;;5040079;28;20048;-58
2021/10/30 08:27:53;;;;;;;8.75;3.53;;;;;;;;;;5044328;28;20048;-58
2021/10/30 08:30:19;;;;;;;6.43;3.30;;;;;;;;;;5043037;28;20049;-58
2021/10/30 08:32:46;;;;;;;9.05;3.95;;;;;;;;;;5058671;28;20048;-57
2021/10/30 08:35:13;;;;;;;7.97;3.78;;;;;;;;;;5064497;28;20052;-58
2021/10/30 08:37:40;;;;;;;8.93;3.72;;;;;;;;;;5058413;28;20056;-58
2021/10/30 08:40:06;;;;;;;7.78;3.42;;;;;;;;;;5063938;28;20052;-57
2021/10/30 08:42:33;;;;;;;7.93;3.45;;;;;;;;;;5045081;28;20130;-58
2021/10/30 08:45:02;;;;;;;7.05;3.03;;;;;;;;;;5042442;28;20033;-58
2021/10/30 08:47:30;;;;;;;10.63;3.13;;;;;;;;;;5050543;28;20044;-58
2021/10/30 08:49:56;;;;;;;9.90;3.63;;;;;;;;;;5062446;28;20041;-58
2021/10/30 08:52:23;;;;;;;9.60;3.90;;;;;;;;;;5060480;28;20049;-58
2021/10/30 08:54:49;;;;;;;8.85;3.13;;;;;;;;;;5063189;28;20037;-58
2021/10/30 08:57:16;;;;;;;8.25;3.60;;;;;;;;;;5059326;28;20106;-57
2021/10/30 08:59:44;;;;;;;9.82;2.97;;;;;;;;;;5063182;28;20048;-59
2021/10/30 09:02:24;;;;;;;9.05;3.08;;;;;;;;;;5043768;28;20044;-58
2021/10/30 09:05:05;;;;;;;8.20;2.92;;;;;;;;;;5041775;28;20037;-58
2021/10/30 09:07:34;;;;;;;7.57;3.08;;;;;;;;;;5044787;28;20037;-58
2021/10/30 09:10:01;;;;;;;7.68;3.33;;;;;;;;;;5063519;28;20049;-57
2021/10/30 09:12:27;;;;;;;10.30;2.95;;;;;;;;;;5047727;28;20083;-58
2021/10/30 09:14:55;;;;;;;7.78;3.40;;;;;;;;;;5063537;28;20106;-57
2021/10/30 09:17:23;;;;;;;8.05;3.03;;;;;;;;;;5058477;28;20053;-58
2021/10/30 09:19:50;;;;;;;7.00;2.80;;;;;;;;;;5042612;28;20037;-58
2021/10/30 09:22:18;;;;;;;6.60;2.80;;;;;;;;;;5042505;28;20038;-58
2021/10/30 09:24:58;;;;;;;5.72;2.25;;;;;;;;;;5040556;28;20045;-58
2021/10/30 09:27:44;;;;;;;6.97;3.00;;;;;;;;;;5043618;28;20037;-58
2021/10/30 09:30:11;;;;;;;5.32;2.47;;;;;;;;;;5024696;28;20033;-57
2021/10/30 09:32:40;;;;;;;6.38;2.65;;;;;;;;;;5046208;28;20041;-58
2021/10/30 09:35:08;;;;;;;;;;;;;;;;;;5055371;28;20033;-58
2021/10/30 09:37:35;;;;;;;11.17;2.37;;;;;;;;;;5042242;28;19928;-58
2021/10/30 09:40:20;;;;;;;7.95;3.08;;;;;;;;;;5038270;28;20278;-58
2021/10/30 09:42:47;;;;;;;11.27;3.03;;;;;;;;;;5042112;28;20052;-58
2021/10/30 09:45:14;;;;;;;7.55;2.40;;;;;;;;;;5053865;28;20095;-57
2021/10/30 09:47:44;;;;;;;9.50;2.53;;;;;;;;;;5053773;28;20049;-59
2021/10/30 09:50:22;;;;;;;10.05;2.85;;;;;;;;;;5046482;28;20037;-59
2021/10/30 09:52:49;;;;;;;7.97;2.45;;;;;;;;;;5051075;28;20053;-58
2021/10/30 09:55:22;;;;;;;6.75;2.78;;;;;;;;;;5057273;28;20127;-58
2021/10/30 09:57:48;;;;;;;6.60;2.83;;;;;;;;;;5059414;28;20063;-58
2021/10/30 10:00:15;;;;;;;7.18;2.70;;;;;;;;;;5043734;28;20037;-58
2021/10/30 10:02:43;;;;;;;6.95;2.45;;;;;;;;;;5046901;28;20033;-58
2021/10/30 10:05:14;;;;;;;6.22;2.42;;;;;;;;;;5044062;28;20100;-58
2021/10/30 10:07:41;;;;;;;6.75;2.90;;;;;;;;;;5055358;28;20119;-58
2021/10/30 10:10:08;;;;;;;6.65;3.05;;;;;;;;;;5046375;28;20041;-58
2021/10/30 10:12:35;;;;;;;7.38;2.33;;;;;;;;;;5047809;28;20122;-58
2021/10/30 10:15:06;;;;;;;7.45;3.03;;;;;;;;;;5044711;28;20123;-58
2021/10/30 10:17:32;;;;;;;11.63;2.85;;;;;;;;;;5051066;28;20049;-59
2021/10/30 10:19:59;;;;;;;5.63;2.63;;;;;;;;;;5049183;28;20063;-58
2021/10/30 10:22:27;;;;;;;7.05;2.75;;;;;;;;;;5042488;28;20064;-58
2021/10/30 10:25:14;;;;;;;8.80;2.35;;;;;;;;;;5051122;28;20061;-58
2021/10/30 10:27:40;;;;;;;5.75;2.78;;;;;;;;;;5049830;28;20039;-57
2021/10/30 10:30:07;;;;;;;6.65;2.50;;;;;;;;;;5047301;28;20119;-58
2021/10/30 10:32:34;;;;;;;7.43;3.00;;;;;;;;;;5043836;28;20040;-58
2021/10/30 10:35:04;;;;;;;9.07;2.45;;;;;;;;;;5047051;28;20052;-59
2021/10/30 10:37:32;;;;;;;6.75;2.65;;;;;;;;;;5059611;28;20055;-59
2021/10/30 10:39:59;;;;;;;6.97;2.70;;;;;;;;;;5080693;28;20048;-58
2021/10/30 10:42:42;;;;;;;6.20;2.42;;;;;;;;;;5061067;28;20037;-59
2021/10/30 10:45:10;;;;;;;4.85;2.45;;;;;;;;;;5048955;28;20123;-58
2021/10/30 10:48:00;;;;;;;7.28;2.60;;;;;;;;;;5050008;28;20045;-58
2021/10/30 10:50:33;;;;;;;8.68;2.78;;;;;;;;;;5063047;28;20040;-59
2021/10/30 10:53:18;;;;;;;11.27;2.70;;;;;;;;;;5048684;28;20057;-59
2021/10/30 10:56:03;;;;;;;6.00;2.50;;;;;;;;;;5054309;28;20084;-59
2021/10/30 10:58:30;;;;;;;7.63;2.17;;;;;;;;;;5068179;28;20064;-59
2021/10/30 11:01:00;;;;;;;13.38;2.85;;;;;;;;;;5058782;28;20061;-60
2021/10/30 11:03:41;;;;;;;4.07;2.03;;;;;;;;;;5052553;28;20049;-60
2021/10/30 11:06:07;;;;;;;5.45;2.33;;;;;;;;;;5054160;28;20424;-59
2021/10/30 11:08:36;;;;;;;5.35;2.50;;;;;;;;;;5059950;28;20057;-59
2021/10/30 11:11:03;;;;;;;;;;;;;;;;;;5063644;28;20040;-59
2021/10/30 11:13:32;;;;;;;4.78;2.22;;;;;;;;;;5085877;28;19935;-58
2021/10/30 11:16:02;;;;;;;5.90;2.53;;;;;;;;;;5065007;28;20044;-60
2021/10/30 11:18:31;;;;;;;5.20;2.35;;;;;;;;;;5064631;28;20040;-60
2021/10/30 11:21:14;;;;;;;8.32;2.60;;;;;;;;;;5056531;28;20036;-60
2021/10/30 11:23:44;;;;;;;5.10;2.20;;;;;;;;;;5044564;28;20048;-60
2021/10/30 11:26:11;;;;;;;7.13;3.00;;;;;;;;;;5049763;28;20519;-60
2021/10/30 11:28:38;;;;;;;5.60;2.55;;;;;;;;;;5049903;28;20040;-60
2021/10/30 11:31:11;;;;;;;8.38;2.83;;;;;;;;;;5053774;28;20476;-60
2021/10/30 11:33:39;;;;;;;7.00;2.53;;;;;;;;;;5049935;28;20093;-60
2021/10/30 11:36:06;;;;;;;4.43;2.38;;;;;;;;;;5055460;28;20083;-60
2021/10/30 11:38:34;;;;;;;4.70;2.20;;;;;;;;;;5048145;28;20060;-60
2021/10/30 11:41:03;;;;;;;5.18;2.22;;;;;;;;;;5052856;28;20118;-60
2021/10/30 11:43:31;;;;;;;4.05;1.85;;;;;;;;;;5045548;28;20045;-60
2021/10/30 11:45:59;;;;;;;7.93;2.63;;;;;;;;;;5054040;28;20483;-60
2021/10/30 11:48:34;;;;;;;9.45;2.47;;;;;;;;;;5053623;28;20060;-59
2021/10/30 11:51:01;;;;;;;5.22;2.30;;;;;;;;;;5050237;28;20051;-60
2021/10/30 11:53:30;;;;;;;6.22;2.92;;;;;;;;;;5048788;28;20037;-61
2021/10/30 11:55:58;;;;;;;6.75;2.45;;;;;;;;;;5053367;28;20052;-60
2021/10/30 11:58:40;;;;;;;6.80;2.35;;;;;;;;;;5052069;28;20053;-60
2021/10/30 12:01:21;;;;;;;5.95;2.15;;;;;;;;;;5047989;28;20073;-60
2021/10/30 12:03:49;;;;;;;6.22;2.80;;;;;;;;;;5063698;28;20037;-60
2021/10/30 12:06:16;;;;;;;5.07;2.15;;;;;;;;;;5070534;28;20064;-60
2021/10/30 12:08:42;;;;;;;4.38;1.90;;;;;;;;;;5052145;28;20040;-59
2021/10/30 12:11:09;;;;;;;4.93;2.15;;;;;;;;;;5049792;28;20119;-60
2021/10/30 12:13:36;;;;;;;4.32;2.10;;;;;;;;;;5054480;28;20040;-60
2021/10/30 12:16:03;;;;;;;7.57;2.13;;;;;;;;;;5045204;28;20087;-59
2021/10/30 12:18:31;;;;;;;4.80;2.15;;;;;;;;;;5055091;28;20045;-59
2021/10/30 12:20:58;;;;;;;6.50;2.03;;;;;;;;;;5045717;28;20110;-59
2021/10/30 12:23:26;;;;;;;6.15;2.42;;;;;;;;;;5059670;28;20493;-59
2021/10/30 12:26:00;;;;;;;9.55;2.42;;;;;;;;;;5048344;28;20044;-60
2021/10/30 12:28:30;;;;;;;6.57;2.30;;;;;;;;;;5055512;28;20044;-59
2021/10/30 12:30:56;;;;;;;4.50;2.28;;;;;;;;;;5046452;28;20070;-59
2021/10/30 12:33:23;;;;;;;5.88;2.63;;;;;;;;;;5051205;28;20033;-59
2021/10/30 12:35:51;;;;;;;7.13;2.58;;;;;;;;;;5046829;28;20155;-59
2021/10/30 12:38:18;;;;;;;8.18;2.45;;;;;;;;;;5054227;28;20037;-60
2021/10/30 12:40:45;;;;;;;5.85;2.53;;;;;;;;;;5046391;28;20037;-60
2021/10/30 12:43:13;;;;;;;6.38;2.20;;;;;;;;;;5054625;28;20061;-60
2021/10/30 12:45:41;;;;;;;4.97;2.17;;;;;;;;;;5049923;28;20045;-60
2021/10/30 12:48:11;;;;;;;5.25;2.10;;;;;;;;;;5057344;28;20041;-60
2021/10/30 12:50:38;;;;;;;4.68;2.17;;;;;;;;;;5049814;28;20064;-60
2021/10/30 12:53:22;;;;;;;5.13;2.50;;;;;;;;;;5056625;28;20041;-60
2021/10/30 12:55:58;;;;;;;5.20;2.00;;;;;;;;;;5074629;28;20053;-61
2021/10/30 12:58:34;;;;;;;8.73;2.45;;;;;;;;;;5052258;28;20111;-61
2021/10/30 13:01:00;;;;;;;7.32;2.80;;;;;;;;;;5052722;28;20041;-60
2021/10/30 13:03:30;;;;;;;6.25;2.20;;;;;;;;;;5060445;28;20134;-61
2021/10/30 13:05:57;;;;;;;5.00;2.00;;;;;;;;;;5050670;28;20060;-60
2021/10/30 13:08:26;;;;;;;6.57;2.65;;;;;;;;;;5046104;28;20048;-61
2021/10/30 13:10:52;;;;;;;6.32;2.10;;;;;;;;;;5058191;28;20049;-61
2021/10/30 13:13:19;;;;;;;4.75;2.10;;;;;;;;;;5059564;28;20041;-60
2021/10/30 13:15:46;;;;;;;4.60;1.88;;;;;;;;;;5063050;28;20049;-60
2021/10/30 13:18:12;;;;;;;4.43;1.98;;;;;;;;;;5059525;28;20040;-60
2021/10/30 13:20:40;;;;;;;6.57;2.70;;;;;;;;;;5072920;28;20047;-60
2021/10/30 13:23:07;;;;;;;3.47;1.95;;;;;;;;;;5067475;28;20040;-60
2021/10/30 13:25:37;;;;;;;6.25;2.38;;;;;;;;;;5061831;28;20036;-61
2021/10/30 13:28:03;;;;;;;4.65;2.05;;;;;;;;;;5062338;28;20054;-60
2021/10/30 13:30:30;;;;;;;6.65;2.30;;;;;;;;;;5075705;28;20041;-60
2021/10/30 13:32:56;;;;;;;7.85;3.83;;;;;;;;;;5071987;28;20048;-61
2021/10/30 13:35:23;;;;;;;6.97;2.70;;;;;;;;;;5072542;28;20037;-60
2021/10/30 13:37:50;;;;;;;5.75;2.13;;;;;;;;;;5068589;28;20125;-61
2021/10/30 13:40:16;;;;;;;5.07;2.20;;;;;;;;;;5069850;28;20079;-61
2021/10/30 13:42:44;;;;;;;4.10;1.90;;;;;;;;;;5065477;28;20047;-60
2021/10/30 13:45:11;;;;;;;10.70;1.95;;;;;;;;;;5071210;28;20418;-62
2021/10/30 13:47:37;;;;;;;4.57;2.05;;;;;;;;;;5075598;28;20129;-60
2021/10/30 13:50:04;;;;;;;8.82;1.92;;;;;;;;;;5067415;28;20059;-60
2021/10/30 13:52:31;;;;;;;4.30;2.00;;;;;;;;;;5073196;28;20039;-60
2021/10/30 13:54:57;;;;;;;6.10;1.90;;;;;;;;;;5066043;28;20084;-60
2021/10/30 13:57:24;;;;;;;3.70;1.75;;;;;;;;;;5072728;28;20149;-60
2021/10/30 13:59:52;;;;;;;5.50;1.73;;;;;;;;;;5067097;28;20028;-60
2021/10/30 14:02:19;;;;;;;6.32;1.80;;;;;;;;;;5068651;28;20041;-60
2021/10/30 14:04:46;;;;;;;3.75;1.70;;;;;;;;;;5071148;28;20047;-61
2021/10/30 14:07:12;;;;;;;2.20;1.40;;;;;;;;;;5066340;28;20036;-61
2021/10/30 14:09:39;;;;;;;3.67;1.60;;;;;;;;;;5069234;28;20118;-61
2021/10/30 14:12:06;;;;;;;6.00;1.60;;;;;;;;;;5077711;28;20056;-60
2021/10/30 14:14:33;;;;;;;5.20;1.92;;;;;;;;;;5067944;28;20402;-60
2021/10/30 14:17:04;;;;;;;5.10;1.40;;;;;;;;;;5077680;28;20043;-60
2021/10/30 14:19:31;;;;;;;5.57;1.90;;;;;;;;;;5075471;28;20474;-60
2021/10/30 14:21:57;;;;;;;6.47;2.03;;;;;;;;;;5074693;28;20033;-61
2021/10/30 14:24:25;;;;;;;3.88;1.60;;;;;;;;;;5070479;28;20052;-60
2021/10/30 14:26:52;;;;;;;4.95;1.30;;;;;;;;;;5072755;28;20141;-60
2021/10/30 14:29:19;;;;;;;7.47;1.38;;;;;;;;;;5075759;28;20055;-61
2021/10/30 14:31:45;;;;;;;2.83;1.35;;;;;;;;;;5060560;28;20111;-60
2021/10/30 14:34:13;;;;;;;2.97;1.45;;;;;;;;;;5061715;28;20041;-60
2021/10/30 14:36:40;;;;;;;2.70;1.20;;;;;;;;;;5065253;28;20044;-60
2021/10/30 14:39:06;;;;;;;5.40;1.42;;;;;;;;;;5053965;28;20041;-60
2021/10/30 14:41:33;;;;;;;3.00;1.33;;;;;;;;;;5059040;28;20069;-59
2021/10/30 14:44:00;;;;;;;3.42;1.48;;;;;;;;;;5069731;28;20045;-60
2021/10/30 14:46:28;;;;;;;8.60;1.55;;;;;;;;;;5071872;28;20056;-60